sensor_id;sensor_type;location;lat;lon;timestamp;P1;durP1;ratioP1;P2;durP2;ratioP2
44816;SDS011;30529;53.570;9.964;2022-07-29T00:00:58;3.03;;;1.17;;
44816;SDS011;30529;53.570;9.964;2022-07-29T00:03:25;3.40;;;1.40;;
44816;SDS011;30529;53.570;9.964;2022-07-29T00:05:51;5.47;;;1.23;;
44816;SDS011;30529;53.570;9.964;2022-07-29T00:08:18;3.67;;;1.60;;
44816;SDS011;30529;53.570;9.964;2022-07-29T00:10:44;4.57;;;1.60;;
44816;SDS011;30529;53.570;9.964;2022-07-29T00:13:10;2.97;;;1.20;;
44816;SDS011;30529;53.570;9.964;2022-07-29T00:15:37;4.67;;;1.47;;
44816;SDS011;30529;53.570;9.964;2022-07-29T00:18:03;3.70;;;1.70;;
44816;SDS011;30529;53.570;9.964;2022-07-29T00:20:29;4.90;;;1.77;;
44816;SDS011;30529;53.570;9.964;2022-07-29T00:22:56;3.70;;;1.50;;
44816;SDS011;30529;53.570;9.964;2022-07-29T00:25:22;4.07;;;1.40;;
44816;SDS011;30529;53.570;9.964;2022-07-29T00:27:48;3.40;;;1.47;;
44816;SDS011;30529;53.570;9.964;2022-07-29T00:30:15;3.73;;;1.40;;
44816;SDS011;30529;53.570;9.964;2022-07-29T00:32:41;2.93;;;1.30;;
44816;SDS011;30529;53.570;9.964;2022-07-29T00:35:07;4.50;;;1.20;;
44816;SDS011;30529;53.570;9.964;2022-07-29T00:37:52;2.87;;;1.30;;
44816;SDS011;30529;53.570;9.964;2022-07-29T00:40:18;5.17;;;1.37;;
44816;SDS011;30529;53.570;9.964;2022-07-29T00:42:45;3.53;;;1.67;;
44816;SDS011;30529;53.570;9.964;2022-07-29T00:45:13;3.73;;;1.40;;
44816;SDS011;30529;53.570;9.964;2022-07-29T00:47:40;4.33;;;1.60;;
44816;SDS011;30529;53.570;9.964;2022-07-29T00:50:07;2.87;;;1.30;;
44816;SDS011;30529;53.570;9.964;2022-07-29T00:52:37;4.33;;;1.57;;
44816;SDS011;30529;53.570;9.964;2022-07-29T00:55:05;3.87;;;1.53;;
44816;SDS011;30529;53.570;9.964;2022-07-29T00:57:34;2.20;;;1.43;;
44816;SDS011;30529;53.570;9.964;2022-07-29T01:00:00;3.40;;;1.60;;
44816;SDS011;30529;53.570;9.964;2022-07-29T01:02:28;3.27;;;1.67;;
44816;SDS011;30529;53.570;9.964;2022-07-29T01:04:54;2.77;;;1.37;;
44816;SDS011;30529;53.570;9.964;2022-07-29T01:07:22;2.37;;;1.47;;
44816;SDS011;30529;53.570;9.964;2022-07-29T01:09:50;2.50;;;1.53;;
44816;SDS011;30529;53.570;9.964;2022-07-29T01:12:21;2.83;;;1.30;;
44816;SDS011;30529;53.570;9.964;2022-07-29T01:14:50;3.43;;;1.30;;
44816;SDS011;30529;53.570;9.964;2022-07-29T01:17:21;3.60;;;1.53;;
44816;SDS011;30529;53.570;9.964;2022-07-29T01:19:59;4.67;;;1.43;;
44816;SDS011;30529;53.570;9.964;2022-07-29T01:34:01;3.13;;;1.80;;
44816;SDS011;30529;53.570;9.964;2022-07-29T01:36:31;3.50;;;1.57;;
44816;SDS011;30529;53.570;9.964;2022-07-29T01:39:11;4.30;;;1.70;;
44816;SDS011;30529;53.570;9.964;2022-07-29T01:41:49;3.87;;;1.93;;
44816;SDS011;30529;53.570;9.964;2022-07-29T01:45:06;3.93;;;1.70;;
44816;SDS011;30529;53.570;9.964;2022-07-29T01:47:17;2.80;;;1.77;;
44816;SDS011;30529;53.570;9.964;2022-07-29T01:49:48;5.40;;;1.53;;
44816;SDS011;30529;53.570;9.964;2022-07-29T01:52:23;2.53;;;1.43;;
44816;SDS011;30529;53.570;9.964;2022-07-29T01:55:00;6.00;;;2.13;;
44816;SDS011;30529;53.570;9.964;2022-07-29T01:57:32;3.07;;;1.50;;
44816;SDS011;30529;53.570;9.964;2022-07-29T02:00:03;4.37;;;1.93;;
44816;SDS011;30529;53.570;9.964;2022-07-29T02:02:30;4.63;;;1.90;;
44816;SDS011;30529;53.570;9.964;2022-07-29T02:05:00;4.13;;;2.00;;
44816;SDS011;30529;53.570;9.964;2022-07-29T02:07:29;3.23;;;1.60;;
44816;SDS011;30529;53.570;9.964;2022-07-29T02:09:57;5.30;;;2.60;;
44816;SDS011;30529;53.570;9.964;2022-07-29T02:12:32;4.90;;;1.73;;
44816;SDS011;30529;53.570;9.964;2022-07-29T02:15:00;2.83;;;1.60;;
44816;SDS011;30529;53.570;9.964;2022-07-29T02:17:31;3.53;;;1.57;;
44816;SDS011;30529;53.570;9.964;2022-07-29T02:20:02;5.00;;;2.10;;
44816;SDS011;30529;53.570;9.964;2022-07-29T02:22:30;4.37;;;1.80;;
44816;SDS011;30529;53.570;9.964;2022-07-29T02:24:59;4.70;;;1.70;;
44816;SDS011;30529;53.570;9.964;2022-07-29T02:27:30;3.17;;;1.60;;
44816;SDS011;30529;53.570;9.964;2022-07-29T02:30:00;2.43;;;1.50;;
44816;SDS011;30529;53.570;9.964;2022-07-29T02:32:29;3.70;;;2.10;;
44816;SDS011;30529;53.570;9.964;2022-07-29T02:34:57;6.47;;;2.07;;
44816;SDS011;30529;53.570;9.964;2022-07-29T02:37:24;7.13;;;2.10;;
44816;SDS011;30529;53.570;9.964;2022-07-29T02:39:52;5.47;;;1.93;;
44816;SDS011;30529;53.570;9.964;2022-07-29T02:42:20;9.53;;;2.07;;
44816;SDS011;30529;53.570;9.964;2022-07-29T02:44:49;4.47;;;2.07;;
44816;SDS011;30529;53.570;9.964;2022-07-29T02:47:20;3.90;;;2.67;;
44816;SDS011;30529;53.570;9.964;2022-07-29T03:00:39;4.97;;;1.73;;
44816;SDS011;30529;53.570;9.964;2022-07-29T03:03:07;5.77;;;2.10;;
44816;SDS011;30529;53.570;9.964;2022-07-29T03:05:37;5.93;;;2.30;;
44816;SDS011;30529;53.570;9.964;2022-07-29T03:08:05;4.00;;;1.77;;
44816;SDS011;30529;53.570;9.964;2022-07-29T03:10:34;4.40;;;1.97;;
44816;SDS011;30529;53.570;9.964;2022-07-29T03:13:04;3.77;;;1.80;;
44816;SDS011;30529;53.570;9.964;2022-07-29T03:15:31;4.70;;;1.77;;
44816;SDS011;30529;53.570;9.964;2022-07-29T03:17:58;6.00;;;2.00;;
44816;SDS011;30529;53.570;9.964;2022-07-29T03:20:25;7.13;;;1.83;;
44816;SDS011;30529;53.570;9.964;2022-07-29T03:22:52;6.47;;;2.00;;
44816;SDS011;30529;53.570;9.964;2022-07-29T03:25:19;3.87;;;1.90;;
44816;SDS011;30529;53.570;9.964;2022-07-29T03:27:46;3.83;;;1.63;;
44816;SDS011;30529;53.570;9.964;2022-07-29T03:30:12;3.53;;;1.90;;
44816;SDS011;30529;53.570;9.964;2022-07-29T03:32:40;3.83;;;1.63;;
44816;SDS011;30529;53.570;9.964;2022-07-29T03:35:07;6.00;;;1.70;;
44816;SDS011;30529;53.570;9.964;2022-07-29T03:37:33;3.37;;;2.10;;
44816;SDS011;30529;53.570;9.964;2022-07-29T03:40:03;4.23;;;2.20;;
44816;SDS011;30529;53.570;9.964;2022-07-29T03:42:32;4.27;;;1.73;;
44816;SDS011;30529;53.570;9.964;2022-07-29T03:45:02;3.47;;;1.83;;
44816;SDS011;30529;53.570;9.964;2022-07-29T03:47:31;6.10;;;2.23;;
44816;SDS011;30529;53.570;9.964;2022-07-29T03:50:01;4.93;;;1.90;;
44816;SDS011;30529;53.570;9.964;2022-07-29T03:52:31;3.63;;;2.00;;
44816;SDS011;30529;53.570;9.964;2022-07-29T03:54:57;5.60;;;1.80;;
44816;SDS011;30529;53.570;9.964;2022-07-29T03:57:23;6.47;;;2.07;;
44816;SDS011;30529;53.570;9.964;2022-07-29T03:59:52;4.07;;;2.07;;
44816;SDS011;30529;53.570;9.964;2022-07-29T04:02:19;2.63;;;1.53;;
44816;SDS011;30529;53.570;9.964;2022-07-29T04:04:46;4.33;;;2.00;;
44816;SDS011;30529;53.570;9.964;2022-07-29T04:07:12;5.77;;;2.00;;
44816;SDS011;30529;53.570;9.964;2022-07-29T04:09:39;4.13;;;2.00;;
44816;SDS011;30529;53.570;9.964;2022-07-29T04:12:06;4.83;;;2.07;;
44816;SDS011;30529;53.570;9.964;2022-07-29T04:14:32;4.53;;;2.00;;
44816;SDS011;30529;53.570;9.964;2022-07-29T04:17:00;3.43;;;1.83;;
44816;SDS011;30529;53.570;9.964;2022-07-29T04:19:27;3.60;;;1.80;;
44816;SDS011;30529;53.570;9.964;2022-07-29T04:21:53;4.37;;;2.13;;
44816;SDS011;30529;53.570;9.964;2022-07-29T04:24:19;7.53;;;1.77;;
44816;SDS011;30529;53.570;9.964;2022-07-29T04:26:46;4.50;;;1.90;;
44816;SDS011;30529;53.570;9.964;2022-07-29T04:29:15;8.90;;;2.03;;
44816;SDS011;30529;53.570;9.964;2022-07-29T04:31:41;4.30;;;1.90;;
44816;SDS011;30529;53.570;9.964;2022-07-29T04:34:08;6.93;;;2.60;;
44816;SDS011;30529;53.570;9.964;2022-07-29T04:36:34;6.47;;;2.27;;
44816;SDS011;30529;53.570;9.964;2022-07-29T04:39:00;5.03;;;1.80;;
44816;SDS011;30529;53.570;9.964;2022-07-29T04:41:27;6.30;;;2.47;;
44816;SDS011;30529;53.570;9.964;2022-07-29T04:43:53;5.37;;;2.80;;
44816;SDS011;30529;53.570;9.964;2022-07-29T04:46:19;3.20;;;1.80;;
44816;SDS011;30529;53.570;9.964;2022-07-29T04:48:46;5.47;;;2.10;;
44816;SDS011;30529;53.570;9.964;2022-07-29T04:51:13;6.50;;;1.90;;
44816;SDS011;30529;53.570;9.964;2022-07-29T04:53:40;4.00;;;2.07;;
44816;SDS011;30529;53.570;9.964;2022-07-29T04:56:06;5.17;;;2.00;;
44816;SDS011;30529;53.570;9.964;2022-07-29T04:58:35;5.83;;;2.27;;
44816;SDS011;30529;53.570;9.964;2022-07-29T05:01:01;4.70;;;1.97;;
44816;SDS011;30529;53.570;9.964;2022-07-29T05:03:29;4.97;;;1.87;;
44816;SDS011;30529;53.570;9.964;2022-07-29T05:05:55;5.50;;;1.73;;
44816;SDS011;30529;53.570;9.964;2022-07-29T05:08:21;5.10;;;1.97;;
44816;SDS011;30529;53.570;9.964;2022-07-29T05:10:47;4.10;;;1.93;;
44816;SDS011;30529;53.570;9.964;2022-07-29T05:13:13;5.50;;;2.07;;
44816;SDS011;30529;53.570;9.964;2022-07-29T05:15:39;5.00;;;1.80;;
44816;SDS011;30529;53.570;9.964;2022-07-29T05:18:05;5.67;;;2.00;;
44816;SDS011;30529;53.570;9.964;2022-07-29T05:20:32;5.07;;;2.20;;
44816;SDS011;30529;53.570;9.964;2022-07-29T05:23:00;4.17;;;2.10;;
44816;SDS011;30529;53.570;9.964;2022-07-29T05:25:27;4.20;;;1.80;;
44816;SDS011;30529;53.570;9.964;2022-07-29T05:27:54;3.47;;;1.90;;
44816;SDS011;30529;53.570;9.964;2022-07-29T05:30:21;11.97;;;2.20;;
44816;SDS011;30529;53.570;9.964;2022-07-29T05:32:47;3.57;;;1.80;;
44816;SDS011;30529;53.570;9.964;2022-07-29T05:35:13;7.13;;;2.23;;
44816;SDS011;30529;53.570;9.964;2022-07-29T05:37:40;6.33;;;2.00;;
44816;SDS011;30529;53.570;9.964;2022-07-29T05:40:07;6.23;;;2.07;;
44816;SDS011;30529;53.570;9.964;2022-07-29T05:42:34;5.60;;;2.10;;
44816;SDS011;30529;53.570;9.964;2022-07-29T05:45:00;4.27;;;1.93;;
44816;SDS011;30529;53.570;9.964;2022-07-29T05:47:27;6.33;;;1.90;;
44816;SDS011;30529;53.570;9.964;2022-07-29T05:49:53;7.47;;;1.80;;
44816;SDS011;30529;53.570;9.964;2022-07-29T05:52:19;4.13;;;1.97;;
44816;SDS011;30529;53.570;9.964;2022-07-29T05:54:50;3.70;;;1.93;;
44816;SDS011;30529;53.570;9.964;2022-07-29T05:57:17;6.23;;;2.47;;
44816;SDS011;30529;53.570;9.964;2022-07-29T05:59:44;7.13;;;3.00;;
44816;SDS011;30529;53.570;9.964;2022-07-29T06:02:11;10.97;;;2.30;;
44816;SDS011;30529;53.570;9.964;2022-07-29T06:04:38;5.93;;;2.57;;
44816;SDS011;30529;53.570;9.964;2022-07-29T06:07:04;5.80;;;2.30;;
44816;SDS011;30529;53.570;9.964;2022-07-29T06:09:31;6.63;;;2.30;;
44816;SDS011;30529;53.570;9.964;2022-07-29T06:11:57;8.37;;;2.10;;
44816;SDS011;30529;53.570;9.964;2022-07-29T06:14:24;6.20;;;2.40;;
44816;SDS011;30529;53.570;9.964;2022-07-29T06:16:50;8.33;;;2.37;;
44816;SDS011;30529;53.570;9.964;2022-07-29T06:19:16;5.47;;;2.10;;
44816;SDS011;30529;53.570;9.964;2022-07-29T06:21:43;7.27;;;2.40;;
44816;SDS011;30529;53.570;9.964;2022-07-29T06:24:12;4.77;;;2.33;;
44816;SDS011;30529;53.570;9.964;2022-07-29T06:26:40;12.87;;;2.80;;
44816;SDS011;30529;53.570;9.964;2022-07-29T06:29:07;5.40;;;2.50;;
44816;SDS011;30529;53.570;9.964;2022-07-29T06:31:34;7.77;;;2.43;;
44816;SDS011;30529;53.570;9.964;2022-07-29T06:34:00;3.60;;;1.90;;
44816;SDS011;30529;53.570;9.964;2022-07-29T06:36:26;5.53;;;2.40;;
44816;SDS011;30529;53.570;9.964;2022-07-29T06:38:52;5.63;;;1.93;;
44816;SDS011;30529;53.570;9.964;2022-07-29T06:41:18;6.73;;;2.93;;
44816;SDS011;30529;53.570;9.964;2022-07-29T06:43:44;6.70;;;3.03;;
44816;SDS011;30529;53.570;9.964;2022-07-29T06:46:13;10.20;;;2.60;;
44816;SDS011;30529;53.570;9.964;2022-07-29T06:48:40;5.17;;;2.10;;
44816;SDS011;30529;53.570;9.964;2022-07-29T06:51:10;5.70;;;1.83;;
44816;SDS011;30529;53.570;9.964;2022-07-29T06:53:37;10.23;;;2.27;;
44816;SDS011;30529;53.570;9.964;2022-07-29T06:56:05;3.40;;;2.00;;
44816;SDS011;30529;53.570;9.964;2022-07-29T06:58:34;9.33;;;2.40;;
44816;SDS011;30529;53.570;9.964;2022-07-29T07:01:02;4.67;;;2.33;;
44816;SDS011;30529;53.570;9.964;2022-07-29T07:03:29;14.10;;;2.83;;
44816;SDS011;30529;53.570;9.964;2022-07-29T07:05:55;5.63;;;1.70;;
44816;SDS011;30529;53.570;9.964;2022-07-29T07:08:22;4.70;;;2.17;;
44816;SDS011;30529;53.570;9.964;2022-07-29T07:10:49;5.20;;;2.43;;
44816;SDS011;30529;53.570;9.964;2022-07-29T07:13:16;7.53;;;2.40;;
44816;SDS011;30529;53.570;9.964;2022-07-29T07:15:43;6.37;;;2.33;;
44816;SDS011;30529;53.570;9.964;2022-07-29T07:18:13;7.50;;;2.63;;
44816;SDS011;30529;53.570;9.964;2022-07-29T07:20:40;6.23;;;2.43;;
44816;SDS011;30529;53.570;9.964;2022-07-29T07:23:07;7.17;;;2.43;;
44816;SDS011;30529;53.570;9.964;2022-07-29T07:25:33;9.20;;;2.57;;
44816;SDS011;30529;53.570;9.964;2022-07-29T07:28:00;8.57;;;3.13;;
44816;SDS011;30529;53.570;9.964;2022-07-29T07:30:26;7.53;;;2.30;;
44816;SDS011;30529;53.570;9.964;2022-07-29T07:32:53;6.73;;;2.47;;
44816;SDS011;30529;53.570;9.964;2022-07-29T07:35:20;4.63;;;1.97;;
44816;SDS011;30529;53.570;9.964;2022-07-29T07:37:47;3.27;;;1.83;;
44816;SDS011;30529;53.570;9.964;2022-07-29T07:40:13;4.27;;;1.90;;
44816;SDS011;30529;53.570;9.964;2022-07-29T07:42:40;6.23;;;2.07;;
44816;SDS011;30529;53.570;9.964;2022-07-29T07:45:07;7.10;;;2.13;;
44816;SDS011;30529;53.570;9.964;2022-07-29T07:47:35;5.37;;;2.33;;
44816;SDS011;30529;53.570;9.964;2022-07-29T07:50:03;6.47;;;2.30;;
44816;SDS011;30529;53.570;9.964;2022-07-29T07:52:30;4.83;;;1.93;;
44816;SDS011;30529;53.570;9.964;2022-07-29T07:54:56;5.63;;;1.90;;
44816;SDS011;30529;53.570;9.964;2022-07-29T07:57:22;5.30;;;2.20;;
44816;SDS011;30529;53.570;9.964;2022-07-29T07:59:48;6.57;;;2.30;;
44816;SDS011;30529;53.570;9.964;2022-07-29T08:02:14;9.87;;;2.73;;
44816;SDS011;30529;53.570;9.964;2022-07-29T08:04:40;6.83;;;2.47;;
44816;SDS011;30529;53.570;9.964;2022-07-29T08:07:07;5.50;;;3.43;;
44816;SDS011;30529;53.570;9.964;2022-07-29T08:09:34;5.47;;;1.77;;
44816;SDS011;30529;53.570;9.964;2022-07-29T08:12:01;5.43;;;2.53;;
44816;SDS011;30529;53.570;9.964;2022-07-29T08:14:29;6.53;;;2.67;;
44816;SDS011;30529;53.570;9.964;2022-07-29T08:16:56;3.77;;;2.20;;
44816;SDS011;30529;53.570;9.964;2022-07-29T08:19:22;4.00;;;2.30;;
44816;SDS011;30529;53.570;9.964;2022-07-29T08:21:52;5.37;;;2.23;;
44816;SDS011;30529;53.570;9.964;2022-07-29T08:24:19;11.20;;;2.30;;
44816;SDS011;30529;53.570;9.964;2022-07-29T08:27:04;4.97;;;2.10;;
44816;SDS011;30529;53.570;9.964;2022-07-29T08:29:30;3.17;;;1.50;;
44816;SDS011;30529;53.570;9.964;2022-07-29T08:32:01;5.23;;;2.03;;
44816;SDS011;30529;53.570;9.964;2022-07-29T08:34:32;3.20;;;1.90;;
44816;SDS011;30529;53.570;9.964;2022-07-29T08:36:58;5.40;;;1.70;;
44816;SDS011;30529;53.570;9.964;2022-07-29T08:39:24;4.37;;;2.17;;
44816;SDS011;30529;53.570;9.964;2022-07-29T08:41:51;5.73;;;1.90;;
44816;SDS011;30529;53.570;9.964;2022-07-29T08:44:18;4.87;;;1.53;;
44816;SDS011;30529;53.570;9.964;2022-07-29T08:46:44;8.03;;;2.23;;
44816;SDS011;30529;53.570;9.964;2022-07-29T08:49:11;2.10;;;1.50;;
44816;SDS011;30529;53.570;9.964;2022-07-29T08:51:39;6.80;;;2.37;;
44816;SDS011;30529;53.570;9.964;2022-07-29T08:54:06;4.87;;;1.80;;
44816;SDS011;30529;53.570;9.964;2022-07-29T08:56:36;6.63;;;2.30;;
44816;SDS011;30529;53.570;9.964;2022-07-29T08:59:04;4.93;;;2.20;;
44816;SDS011;30529;53.570;9.964;2022-07-29T09:01:33;9.23;;;1.97;;
44816;SDS011;30529;53.570;9.964;2022-07-29T09:04:04;5.50;;;1.60;;
44816;SDS011;30529;53.570;9.964;2022-07-29T09:06:34;5.83;;;1.63;;
44816;SDS011;30529;53.570;9.964;2022-07-29T09:09:03;6.97;;;2.17;;
44816;SDS011;30529;53.570;9.964;2022-07-29T09:11:29;3.57;;;1.73;;
44816;SDS011;30529;53.570;9.964;2022-07-29T09:13:58;6.07;;;1.87;;
44816;SDS011;30529;53.570;9.964;2022-07-29T09:16:24;3.70;;;1.57;;
44816;SDS011;30529;53.570;9.964;2022-07-29T09:18:50;4.10;;;2.00;;
44816;SDS011;30529;53.570;9.964;2022-07-29T09:21:16;3.20;;;1.47;;
44816;SDS011;30529;53.570;9.964;2022-07-29T09:26:32;6.00;;;2.10;;
44816;SDS011;30529;53.570;9.964;2022-07-29T09:29:11;7.43;;;1.57;;
44816;SDS011;30529;53.570;9.964;2022-07-29T09:31:40;5.00;;;1.73;;
44816;SDS011;30529;53.570;9.964;2022-07-29T09:34:08;4.00;;;1.90;;
44816;SDS011;30529;53.570;9.964;2022-07-29T09:36:42;3.07;;;1.40;;
44816;SDS011;30529;53.570;9.964;2022-07-29T09:39:10;2.93;;;1.40;;
44816;SDS011;30529;53.570;9.964;2022-07-29T09:44:18;3.53;;;1.50;;
44816;SDS011;30529;53.570;9.964;2022-07-29T09:46:58;5.27;;;1.80;;
44816;SDS011;30529;53.570;9.964;2022-07-29T09:49:32;4.33;;;1.70;;
44816;SDS011;30529;53.570;9.964;2022-07-29T09:52:03;4.47;;;1.40;;
44816;SDS011;30529;53.570;9.964;2022-07-29T09:54:34;4.53;;;1.37;;
44816;SDS011;30529;53.570;9.964;2022-07-29T09:57:05;2.90;;;1.40;;
44816;SDS011;30529;53.570;9.964;2022-07-29T09:59:34;3.53;;;1.80;;
44816;SDS011;30529;53.570;9.964;2022-07-29T10:02:00;3.33;;;1.47;;
44816;SDS011;30529;53.570;9.964;2022-07-29T10:04:42;2.43;;;1.53;;
44816;SDS011;30529;53.570;9.964;2022-07-29T10:07:08;4.33;;;1.30;;
44816;SDS011;30529;53.570;9.964;2022-07-29T10:09:35;3.87;;;1.60;;
44816;SDS011;30529;53.570;9.964;2022-07-29T10:12:05;9.10;;;1.90;;
44816;SDS011;30529;53.570;9.964;2022-07-29T10:14:33;2.87;;;1.57;;
44816;SDS011;30529;53.570;9.964;2022-07-29T10:17:00;4.20;;;1.47;;
44816;SDS011;30529;53.570;9.964;2022-07-29T10:19:29;2.73;;;1.47;;
44816;SDS011;30529;53.570;9.964;2022-07-29T10:21:57;3.97;;;1.73;;
44816;SDS011;30529;53.570;9.964;2022-07-29T10:24:26;5.17;;;1.77;;
44816;SDS011;30529;53.570;9.964;2022-07-29T10:26:58;6.93;;;1.73;;
44816;SDS011;30529;53.570;9.964;2022-07-29T10:29:28;4.43;;;1.63;;
44816;SDS011;30529;53.570;9.964;2022-07-29T10:43:23;6.63;;;1.50;;
44816;SDS011;30529;53.570;9.964;2022-07-29T10:45:57;3.90;;;1.67;;
44816;SDS011;30529;53.570;9.964;2022-07-29T10:48:25;3.57;;;1.50;;
44816;SDS011;30529;53.570;9.964;2022-07-29T10:50:58;2.87;;;1.13;;
44816;SDS011;30529;53.570;9.964;2022-07-29T11:01:47;4.87;;;1.37;;
44816;SDS011;30529;53.570;9.964;2022-07-29T11:07:09;2.97;;;1.23;;
44816;SDS011;30529;53.570;9.964;2022-07-29T11:09:35;4.90;;;1.33;;
44816;SDS011;30529;53.570;9.964;2022-07-29T11:12:01;5.87;;;1.60;;
44816;SDS011;30529;53.570;9.964;2022-07-29T11:17:20;4.80;;;1.50;;
44816;SDS011;30529;53.570;9.964;2022-07-29T11:19:46;2.63;;;1.27;;
44816;SDS011;30529;53.570;9.964;2022-07-29T11:22:31;3.70;;;1.23;;
44816;SDS011;30529;53.570;9.964;2022-07-29T11:25:14;5.17;;;1.90;;
44816;SDS011;30529;53.570;9.964;2022-07-29T11:27:41;5.83;;;1.10;;
44816;SDS011;30529;53.570;9.964;2022-07-29T11:30:09;5.40;;;1.53;;
44816;SDS011;30529;53.570;9.964;2022-07-29T11:32:38;4.90;;;1.30;;
44816;SDS011;30529;53.570;9.964;2022-07-29T11:37:45;3.43;;;1.47;;
44816;SDS011;30529;53.570;9.964;2022-07-29T11:40:12;4.87;;;1.57;;
44816;SDS011;30529;53.570;9.964;2022-07-29T11:42:40;3.67;;;1.40;;
44816;SDS011;30529;53.570;9.964;2022-07-29T11:45:15;3.03;;;1.33;;
44816;SDS011;30529;53.570;9.964;2022-07-29T11:47:50;1.73;;;1.03;;
44816;SDS011;30529;53.570;9.964;2022-07-29T11:50:29;5.30;;;1.10;;
44816;SDS011;30529;53.570;9.964;2022-07-29T11:53:01;3.60;;;1.20;;
44816;SDS011;30529;53.570;9.964;2022-07-29T11:55:38;4.43;;;1.07;;
44816;SDS011;30529;53.570;9.964;2022-07-29T11:58:05;2.97;;;1.30;;
44816;SDS011;30529;53.570;9.964;2022-07-29T12:00:32;5.10;;;1.60;;
44816;SDS011;30529;53.570;9.964;2022-07-29T12:03:04;6.97;;;2.03;;
44816;SDS011;30529;53.570;9.964;2022-07-29T12:05:39;2.20;;;1.00;;
44816;SDS011;30529;53.570;9.964;2022-07-29T12:08:15;2.30;;;1.47;;
44816;SDS011;30529;53.570;9.964;2022-07-29T12:10:45;3.50;;;1.47;;
44816;SDS011;30529;53.570;9.964;2022-07-29T12:13:13;2.63;;;1.60;;
44816;SDS011;30529;53.570;9.964;2022-07-29T12:15:40;4.87;;;1.27;;
44816;SDS011;30529;53.570;9.964;2022-07-29T12:18:14;7.70;;;1.10;;
44816;SDS011;30529;53.570;9.964;2022-07-29T12:20:43;2.97;;;1.40;;
44816;SDS011;30529;53.570;9.964;2022-07-29T12:23:10;6.70;;;1.37;;
44816;SDS011;30529;53.570;9.964;2022-07-29T12:25:40;2.23;;;0.97;;
44816;SDS011;30529;53.570;9.964;2022-07-29T12:28:08;2.83;;;1.37;;
44816;SDS011;30529;53.570;9.964;2022-07-29T12:30:37;4.53;;;1.40;;
44816;SDS011;30529;53.570;9.964;2022-07-29T12:33:25;5.83;;;1.47;;
44816;SDS011;30529;53.570;9.964;2022-07-29T12:35:54;4.63;;;1.30;;
44816;SDS011;30529;53.570;9.964;2022-07-29T12:38:24;5.80;;;1.50;;
44816;SDS011;30529;53.570;9.964;2022-07-29T12:40:52;2.73;;;1.50;;
44816;SDS011;30529;53.570;9.964;2022-07-29T12:43:20;5.23;;;1.40;;
44816;SDS011;30529;53.570;9.964;2022-07-29T12:45:54;5.97;;;1.50;;
44816;SDS011;30529;53.570;9.964;2022-07-29T12:51:02;4.17;;;1.70;;
44816;SDS011;30529;53.570;9.964;2022-07-29T12:53:29;7.67;;;1.73;;
44816;SDS011;30529;53.570;9.964;2022-07-29T12:55:56;3.33;;;1.20;;
44816;SDS011;30529;53.570;9.964;2022-07-29T12:58:35;4.30;;;1.37;;
44816;SDS011;30529;53.570;9.964;2022-07-29T13:01:07;8.03;;;2.00;;
44816;SDS011;30529;53.570;9.964;2022-07-29T13:04:08;5.63;;;2.20;;
44816;SDS011;30529;53.570;9.964;2022-07-29T13:06:37;5.30;;;1.77;;
44816;SDS011;30529;53.570;9.964;2022-07-29T13:11:45;7.13;;;1.27;;
44816;SDS011;30529;53.570;9.964;2022-07-29T13:14:34;4.33;;;1.27;;
44816;SDS011;30529;53.570;9.964;2022-07-29T13:19:46;3.50;;;1.20;;
44816;SDS011;30529;53.570;9.964;2022-07-29T13:22:15;5.97;;;1.40;;
44816;SDS011;30529;53.570;9.964;2022-07-29T13:24:49;3.27;;;1.30;;
44816;SDS011;30529;53.570;9.964;2022-07-29T13:27:28;7.90;;;1.90;;
44816;SDS011;30529;53.570;9.964;2022-07-29T13:29:58;6.73;;;1.60;;
44816;SDS011;30529;53.570;9.964;2022-07-29T13:32:26;4.73;;;1.40;;
44816;SDS011;30529;53.570;9.964;2022-07-29T13:34:53;6.53;;;1.53;;
44816;SDS011;30529;53.570;9.964;2022-07-29T13:37:25;4.30;;;1.60;;
44816;SDS011;30529;53.570;9.964;2022-07-29T13:39:57;3.17;;;1.70;;
44816;SDS011;30529;53.570;9.964;2022-07-29T13:42:29;5.00;;;1.60;;
44816;SDS011;30529;53.570;9.964;2022-07-29T13:44:55;4.83;;;1.47;;
44816;SDS011;30529;53.570;9.964;2022-07-29T13:47:21;5.13;;;1.83;;
44816;SDS011;30529;53.570;9.964;2022-07-29T13:49:48;7.17;;;1.60;;
44816;SDS011;30529;53.570;9.964;2022-07-29T13:52:18;6.67;;;1.40;;
44816;SDS011;30529;53.570;9.964;2022-07-29T13:54:47;3.87;;;1.83;;
44816;SDS011;30529;53.570;9.964;2022-07-29T13:57:14;4.13;;;1.60;;
44816;SDS011;30529;53.570;9.964;2022-07-29T13:59:41;7.33;;;2.00;;
44816;SDS011;30529;53.570;9.964;2022-07-29T14:02:09;3.10;;;1.60;;
44816;SDS011;30529;53.570;9.964;2022-07-29T14:04:36;8.30;;;2.00;;
44816;SDS011;30529;53.570;9.964;2022-07-29T14:07:03;3.80;;;1.50;;
44816;SDS011;30529;53.570;9.964;2022-07-29T14:09:29;4.47;;;1.93;;
44816;SDS011;30529;53.570;9.964;2022-07-29T14:11:55;11.83;;;2.10;;
44816;SDS011;30529;53.570;9.964;2022-07-29T14:14:22;3.97;;;1.80;;
44816;SDS011;30529;53.570;9.964;2022-07-29T14:16:48;8.27;;;1.77;;
44816;SDS011;30529;53.570;9.964;2022-07-29T14:19:14;7.67;;;1.80;;
44816;SDS011;30529;53.570;9.964;2022-07-29T14:21:40;7.33;;;1.70;;
44816;SDS011;30529;53.570;9.964;2022-07-29T14:24:07;6.43;;;1.73;;
44816;SDS011;30529;53.570;9.964;2022-07-29T14:26:33;6.23;;;2.20;;
44816;SDS011;30529;53.570;9.964;2022-07-29T14:28:59;5.30;;;1.73;;
44816;SDS011;30529;53.570;9.964;2022-07-29T14:31:25;6.37;;;1.57;;
44816;SDS011;30529;53.570;9.964;2022-07-29T14:33:51;10.60;;;1.93;;
44816;SDS011;30529;53.570;9.964;2022-07-29T14:36:17;3.57;;;1.90;;
44816;SDS011;30529;53.570;9.964;2022-07-29T14:38:43;8.20;;;1.80;;
44816;SDS011;30529;53.570;9.964;2022-07-29T14:41:10;2.50;;;1.20;;
44816;SDS011;30529;53.570;9.964;2022-07-29T14:43:36;4.90;;;1.80;;
44816;SDS011;30529;53.570;9.964;2022-07-29T14:46:02;4.30;;;1.80;;
44816;SDS011;30529;53.570;9.964;2022-07-29T14:48:28;4.13;;;1.70;;
44816;SDS011;30529;53.570;9.964;2022-07-29T14:50:54;4.90;;;1.60;;
44816;SDS011;30529;53.570;9.964;2022-07-29T14:53:22;5.53;;;1.50;;
44816;SDS011;30529;53.570;9.964;2022-07-29T14:55:48;4.13;;;1.57;;
44816;SDS011;30529;53.570;9.964;2022-07-29T14:58:14;3.20;;;2.17;;
44816;SDS011;30529;53.570;9.964;2022-07-29T15:00:41;4.00;;;1.50;;
44816;SDS011;30529;53.570;9.964;2022-07-29T15:03:08;5.57;;;1.40;;
44816;SDS011;30529;53.570;9.964;2022-07-29T15:05:37;5.83;;;1.90;;
44816;SDS011;30529;53.570;9.964;2022-07-29T15:08:03;3.57;;;1.60;;
44816;SDS011;30529;53.570;9.964;2022-07-29T15:10:29;7.60;;;1.60;;
44816;SDS011;30529;53.570;9.964;2022-07-29T15:12:55;6.93;;;1.60;;
44816;SDS011;30529;53.570;9.964;2022-07-29T15:15:22;3.73;;;1.43;;
44816;SDS011;30529;53.570;9.964;2022-07-29T15:17:48;7.13;;;1.90;;
44816;SDS011;30529;53.570;9.964;2022-07-29T15:20:14;5.73;;;2.10;;
44816;SDS011;30529;53.570;9.964;2022-07-29T15:22:40;4.40;;;1.47;;
44816;SDS011;30529;53.570;9.964;2022-07-29T15:25:08;5.87;;;1.50;;
44816;SDS011;30529;53.570;9.964;2022-07-29T15:27:34;4.10;;;1.63;;
44816;SDS011;30529;53.570;9.964;2022-07-29T15:30:01;3.83;;;1.93;;
44816;SDS011;30529;53.570;9.964;2022-07-29T15:32:27;5.03;;;1.80;;
44816;SDS011;30529;53.570;9.964;2022-07-29T15:34:54;11.47;;;1.70;;
44816;SDS011;30529;53.570;9.964;2022-07-29T15:37:20;4.03;;;1.40;;
44816;SDS011;30529;53.570;9.964;2022-07-29T15:39:46;6.83;;;1.80;;
44816;SDS011;30529;53.570;9.964;2022-07-29T15:42:12;6.03;;;1.87;;
44816;SDS011;30529;53.570;9.964;2022-07-29T15:44:38;3.40;;;1.30;;
44816;SDS011;30529;53.570;9.964;2022-07-29T15:47:04;4.47;;;1.87;;
44816;SDS011;30529;53.570;9.964;2022-07-29T15:49:32;4.50;;;1.37;;
44816;SDS011;30529;53.570;9.964;2022-07-29T15:52:01;5.23;;;1.60;;
44816;SDS011;30529;53.570;9.964;2022-07-29T15:54:31;4.03;;;1.70;;
44816;SDS011;30529;53.570;9.964;2022-07-29T15:56:58;7.37;;;1.93;;
44816;SDS011;30529;53.570;9.964;2022-07-29T15:59:24;2.43;;;1.50;;